Judra+barza — DB9520 — position and weather

sailwx.info

Track history (hours):
 
Tides and Currents Weather Stations Pressure Air Temp Water Temp Dewpoint Dewpoint Depression Visibility Wind Speed Wind Dir Waves Ship Positions

Judra+barza

Last reported at 2017-Oct-18 06:08 UTC. Time now 2017-Oct-22 21:14 UTC.
Position N 44°22' E 028°02'.

Length 102 m; draft 1.4 m.

Type: Other ship. MMSI: 211480870.

Date/timePositionNaut miles runAvg speedWind from/ knotsBaromVisibWave heightAir tempDewpointWater temp
2017-Oct-18 06:08N 44°22' E 028°02'  
2017-Oct-08 13:18N 43°50' E 022°54'3 8.6
2017-Oct-08 12:59N 43°52' E 022°51'4 8.5
2017-Oct-08 12:30N 43°56' E 022°52'4 8.2
2017-Oct-08 12:00N 43°60' E 022°54'5 8.6
2017-Oct-08 11:27N 44°01' E 022°60'4 8.4
2017-Oct-08 11:00N 44°04' E 023°03'4 8.0
2017-Oct-08 10:29N 44°06' E 022°58'4 8.6
2017-Oct-08 09:59N 44°08' E 022°53'4 9.0
2017-Oct-08 09:30N 44°10' E 022°47'5 9.1
2017-Oct-08 09:00N 44°12' E 022°42'4 7.7
2017-Oct-08 08:31N 44°16' E 022°41'3 5.3
2017-Oct-08 08:01N 44°17' E 022°38'1 1.4
2017-Oct-08 07:31N 44°17' E 022°37'0 0.0
2017-Oct-08 07:01N 44°17' E 022°37'0 0.0
2017-Oct-08 06:31N 44°17' E 022°37'  
Track history (hours):
 
Tides and Currents Weather Stations Pressure Air Temp Water Temp Dewpoint Dewpoint Depression Visibility Wind Speed Wind Dir Waves Ship Positions

Judra+barza

Last reported at 2017-Oct-18 06:08 UTC. Time now 2017-Oct-22 21:14 UTC.
Position N 44°22' E 028°02'.

Length 102 m; draft 1.4 m.

Type: Other ship. MMSI: 211480870.

Date/timePositionNaut miles runAvg speedWind from/ knotsBaromVisibWave heightAir tempDewpointWater temp
2017-Oct-18 06:08N 44°22' E 028°02'  
2017-Oct-08 13:18N 43°50' E 022°54'3 8.6
2017-Oct-08 12:59N 43°52' E 022°51'4 8.5
2017-Oct-08 12:30N 43°56' E 022°52'4 8.2
2017-Oct-08 12:00N 43°60' E 022°54'5 8.6
2017-Oct-08 11:27N 44°01' E 022°60'4 8.4
2017-Oct-08 11:00N 44°04' E 023°03'4 8.0
2017-Oct-08 10:29N 44°06' E 022°58'4 8.6
2017-Oct-08 09:59N 44°08' E 022°53'4 9.0
2017-Oct-08 09:30N 44°10' E 022°47'5 9.1
2017-Oct-08 09:00N 44°12' E 022°42'4 7.7
2017-Oct-08 08:31N 44°16' E 022°41'3 5.3
2017-Oct-08 08:01N 44°17' E 022°38'1 1.4
2017-Oct-08 07:31N 44°17' E 022°37'0 0.0
2017-Oct-08 07:01N 44°17' E 022°37'0 0.0
2017-Oct-08 06:31N 44°17' E 022°37'  

Dump ship's entire track history